createdAt,value
2022-09-17T00:00:59.594Z,100327.44
2022-09-17T00:03:30.837Z,100327.44
2022-09-17T00:06:06.322Z,100322.16
2022-09-17T00:08:42.007Z,100319.28
2022-09-17T00:11:16.151Z,100314.84
2022-09-17T00:13:47.491Z,100323.81
2022-09-17T00:16:28.544Z,100323.81
2022-09-17T00:18:59.711Z,100315.69
2022-09-17T00:21:30.701Z,100316.09
2022-09-17T00:24:06.292Z,100315.31
2022-09-17T00:26:37.593Z,100317.34
2022-09-17T00:29:09.115Z,100317.78
2022-09-17T00:31:40.234Z,100318.22
2022-09-17T00:34:12.258Z,100310.91
2022-09-17T00:36:43.790Z,100316.59
2022-09-17T00:39:16.889Z,100312.13
2022-09-17T00:41:47.234Z,100315.78
2022-09-17T00:44:51.257Z,100314.16
2022-09-17T00:47:27.884Z,100307.28
2022-09-17T00:50:03.826Z,100302.81
2022-09-17T00:52:42.110Z,100302.81
2022-09-17T00:55:24.159Z,100308.16
2022-09-17T00:57:59.176Z,100307.34
2022-09-17T01:00:30.243Z,100298.88
2022-09-17T01:03:01.612Z,100312.28
2022-09-17T01:05:42.979Z,100304.19
2022-09-17T01:08:27.801Z,100307.47
2022-09-17T01:11:42.076Z,100299.78
2022-09-17T01:14:41.065Z,100304.69
2022-09-17T01:17:27.920Z,100297.78
2022-09-17T01:20:45.715Z,100310.41
2022-09-17T01:23:46.563Z,100308.81
2022-09-17T01:26:52.946Z,100312.47
2022-09-17T01:29:47.844Z,100310.84
2022-09-17T01:32:27.549Z,100311.66
2022-09-17T01:35:06.969Z,100311.22
2022-09-17T01:37:44.889Z,100316.91
2022-09-17T01:40:27.095Z,100316.91
2022-09-17T01:43:06.928Z,100308.38
2022-09-17T01:45:44.966Z,100307.56
2022-09-17T01:48:20.475Z,100313.25
2022-09-17T01:50:57.739Z,100311.66
2022-09-17T01:53:37.805Z,100313.31
2022-09-17T01:56:11.492Z,100317.38
2022-09-17T01:58:50.863Z,100319.88
2022-09-17T02:01:26.865Z,100315.81
2022-09-17T02:04:07.437Z,100310.19
2022-09-17T02:06:42.402Z,100325.31
2022-09-17T02:09:24.079Z,100325.72
2022-09-17T02:12:00.150Z,100325.75
2022-09-17T02:14:37.435Z,100326.19
2022-09-17T02:17:17.367Z,100335.53
2022-09-17T02:19:50.768Z,100333.09
2022-09-17T02:22:31.469Z,100336.34
2022-09-17T02:25:10.889Z,100335.16
2022-09-17T02:27:55.006Z,100332.75
2022-09-17T02:30:25.685Z,100337.28
2022-09-17T02:32:57.271Z,100336.44
2022-09-17T02:35:29.767Z,100340.53
2022-09-17T02:38:00.267Z,100341.75
2022-09-17T02:40:38.366Z,100341.75
2022-09-17T02:43:25.738Z,100339.72
2022-09-17T02:46:17.141Z,100338.13
2022-09-17T02:49:27.416Z,100344.25
2022-09-17T02:52:10.406Z,100350.34
2022-09-17T02:54:55.021Z,100350.34
2022-09-17T02:57:33.000Z,100354.00
2022-09-17T03:00:14.640Z,100354.81
2022-09-17T03:02:52.674Z,100358.88
2022-09-17T03:05:26.874Z,100357.25
2022-09-17T03:08:02.191Z,100358.09
2022-09-17T03:10:34.630Z,100362.94
2022-09-17T03:13:05.090Z,100366.63
2022-09-17T03:15:35.656Z,100366.63
2022-09-17T03:18:05.924Z,100362.94
2022-09-17T03:20:36.330Z,100360.94
2022-09-17T03:23:08.766Z,100357.25
2022-09-17T03:25:39.760Z,100360.53
2022-09-17T03:28:10.303Z,100360.53
2022-09-17T03:30:40.918Z,100358.13
2022-09-17T03:33:11.414Z,100365.44
2022-09-17T03:35:45.971Z,100360.53
2022-09-17T03:38:18.639Z,100361.34
2022-09-17T03:41:00.146Z,100356.47
2022-09-17T03:43:30.682Z,100361.34
2022-09-17T03:46:01.159Z,100367.03
2022-09-17T03:48:32.809Z,100359.31
2022-09-17T03:51:03.297Z,100355.66
2022-09-17T03:53:35.649Z,100353.63
2022-09-17T03:56:08.961Z,100356.03
2022-09-17T03:58:39.485Z,100350.34
2022-09-17T04:01:10.333Z,100356.84
2022-09-17T04:03:40.803Z,100351.16
2022-09-17T04:06:11.404Z,100362.91
2022-09-17T04:08:44.130Z,100359.66
2022-09-17T04:11:14.608Z,100349.88
2022-09-17T04:13:44.811Z,100351.91
2022-09-17T04:16:15.800Z,100354.34
2022-09-17T04:18:45.672Z,100345.41
2022-09-17T04:21:16.110Z,100353.13
2022-09-17T04:23:48.464Z,100353.13
2022-09-17T04:26:18.957Z,100363.28
2022-09-17T04:28:49.479Z,100362.88
2022-09-17T04:31:19.635Z,100356.31
2022-09-17T04:33:50.101Z,100357.53
2022-09-17T04:36:20.919Z,100356.66
2022-09-17T04:38:53.343Z,100353.78
2022-09-17T04:41:23.408Z,100357.84
2022-09-17T04:43:53.756Z,100356.19
2022-09-17T04:46:24.160Z,100354.50
2022-09-17T04:48:54.542Z,100347.97
2022-09-17T04:51:24.812Z,100351.56
2022-09-17T04:53:57.107Z,100340.94
2022-09-17T04:56:27.569Z,100340.88
2022-09-17T04:58:57.389Z,100342.44
2022-09-17T05:01:28.527Z,100344.81
2022-09-17T05:03:59.174Z,100352.44
2022-09-17T05:06:29.574Z,100351.16
2022-09-17T05:09:02.610Z,100352.31
2022-09-17T05:11:33.442Z,100347.72
2022-09-17T05:14:03.629Z,100347.25
2022-09-17T05:16:34.176Z,100346.75
2022-09-17T05:19:04.791Z,100349.13
2022-09-17T05:21:35.066Z,100349.44
2022-09-17T05:24:08.593Z,100349.75
2022-09-17T05:26:38.995Z,100337.47
2022-09-17T05:29:10.182Z,100345.16
2022-09-17T05:31:40.661Z,100342.31
2022-09-17T05:34:11.365Z,100348.38
2022-09-17T05:36:41.809Z,100347.16
2022-09-17T05:39:14.346Z,100348.31
2022-09-17T05:41:44.752Z,100347.88
2022-09-17T05:44:18.073Z,100345.41
2022-09-17T05:46:48.871Z,100354.31
2022-09-17T05:49:19.386Z,100344.03
2022-09-17T05:51:50.264Z,100338.19
2022-09-17T05:54:22.346Z,100342.97
2022-09-17T05:56:57.384Z,100340.75
2022-09-17T05:59:28.475Z,100341.88
2022-09-17T06:01:59.348Z,100333.56
2022-09-17T06:04:34.056Z,100336.66
2022-09-17T06:07:08.949Z,100335.63
2022-09-17T06:09:41.913Z,100338.78
2022-09-17T06:12:12.140Z,100338.25
2022-09-17T06:14:42.271Z,100336.16
2022-09-17T06:17:12.699Z,100343.09
2022-09-17T06:19:43.164Z,100348.81
2022-09-17T06:22:13.290Z,100344.72
2022-09-17T06:24:45.736Z,100340.63
2022-09-17T06:27:15.832Z,100344.63
2022-09-17T06:29:46.390Z,100349.03
2022-09-17T06:32:17.379Z,100346.53
2022-09-17T06:34:48.339Z,100339.13
2022-09-17T06:37:18.545Z,100339.50
2022-09-17T06:39:51.047Z,100343.09
2022-09-17T06:42:21.505Z,100343.53
2022-09-17T06:44:51.931Z,100348.00
2022-09-17T06:47:21.996Z,100341.44
2022-09-17T06:49:52.606Z,100340.13
2022-09-17T06:52:22.940Z,100343.63
2022-09-17T06:54:55.486Z,100352.03
2022-09-17T06:57:26.032Z,100344.16
2022-09-17T06:59:56.038Z,100353.47
2022-09-17T07:02:26.768Z,100355.00
2022-09-17T07:04:56.930Z,100353.31
2022-09-17T07:07:27.440Z,100351.53
2022-09-17T07:09:59.936Z,100346.47
2022-09-17T07:12:30.265Z,100349.56
2022-09-17T07:15:00.724Z,100344.03
2022-09-17T07:17:32.961Z,100340.09
2022-09-17T07:20:03.341Z,100346.41
2022-09-17T07:22:33.684Z,100340.53
2022-09-17T07:25:06.491Z,100344.03
2022-09-17T07:27:36.578Z,100341.81
2022-09-17T07:30:08.366Z,100340.03
2022-09-17T07:32:38.501Z,100341.88
2022-09-17T07:35:09.445Z,100336.41
2022-09-17T07:37:40.063Z,100336.66
2022-09-17T07:40:14.031Z,100329.94
2022-09-17T07:42:44.442Z,100322.88
2022-09-17T07:45:14.915Z,100326.13
2022-09-17T07:47:45.326Z,100327.28
2022-09-17T07:50:15.816Z,100325.13
2022-09-17T07:52:50.027Z,100325.38
2022-09-17T07:55:24.228Z,100331.00
2022-09-17T07:57:58.646Z,100318.97
2022-09-17T08:00:29.302Z,100319.22
2022-09-17T08:03:01.700Z,100312.50
2022-09-17T08:05:32.230Z,100324.66
2022-09-17T08:08:03.162Z,100315.13
2022-09-17T08:10:36.662Z,100317.56
2022-09-17T08:13:07.495Z,100322.03
2022-09-17T08:15:38.033Z,100322.94
2022-09-17T08:18:08.236Z,100317.94
2022-09-17T08:20:38.108Z,100318.63
2022-09-17T08:23:08.528Z,100315.34
2022-09-17T08:25:40.656Z,100314.88
2022-09-17T08:28:10.659Z,100311.19
2022-09-17T08:30:41.056Z,100302.94
2022-09-17T08:33:10.934Z,100303.78
2022-09-17T08:35:41.381Z,100307.78
2022-09-17T08:38:11.650Z,100293.34
2022-09-17T08:41:04.343Z,100298.53
2022-09-17T08:43:42.905Z,100291.06
2022-09-17T08:46:14.037Z,100293.00
2022-09-17T08:48:52.001Z,100293.22
2022-09-17T08:51:37.234Z,100290.59
2022-09-17T08:54:21.018Z,100291.31
2022-09-17T08:57:09.405Z,100292.78
2022-09-17T08:59:52.365Z,100291.09
2022-09-17T09:02:42.492Z,100286.53
2022-09-17T09:05:19.900Z,100282.06
2022-09-17T09:07:57.731Z,100280.00
2022-09-17T09:10:34.124Z,100275.41
2022-09-17T09:13:08.116Z,100278.25
2022-09-17T09:15:46.543Z,100274.13
2022-09-17T09:18:24.536Z,100274.47
2022-09-17T09:21:01.486Z,100276.44
2022-09-17T09:23:50.023Z,100275.63
2022-09-17T09:26:23.268Z,100272.09
2022-09-17T09:29:29.266Z,100265.19
2022-09-17T09:32:20.991Z,100265.53
2022-09-17T09:34:52.751Z,100267.97
2022-09-17T09:37:30.844Z,100269.09
2022-09-17T09:40:20.578Z,100264.97
2022-09-17T09:42:51.358Z,100268.75
2022-09-17T09:45:39.783Z,100264.75
2022-09-17T09:48:25.333Z,100253.28
2022-09-17T09:51:17.762Z,100258.19
2022-09-17T09:54:10.967Z,100259.81
2022-09-17T09:56:59.575Z,100249.94
2022-09-17T09:59:30.365Z,100251.09
2022-09-17T10:02:02.437Z,100247.44
2022-09-17T10:04:33.598Z,100247.19
2022-09-17T10:07:08.015Z,100245.25
2022-09-17T10:09:41.270Z,100237.56
2022-09-17T10:12:21.992Z,100238.47
2022-09-17T10:15:06.146Z,100233.78
2022-09-17T10:17:38.061Z,100234.34
2022-09-17T10:20:25.964Z,100228.28
2022-09-17T10:22:56.650Z,100234.91
2022-09-17T10:25:33.354Z,100230.44
2022-09-17T10:28:08.965Z,100237.78
2022-09-17T10:30:39.325Z,100240.19
2022-09-17T10:33:28.866Z,100236.53
2022-09-17T10:36:07.122Z,100238.13
2022-09-17T10:38:40.997Z,100240.53
2022-09-17T10:41:29.111Z,100227.47
2022-09-17T10:43:59.530Z,100228.41
2022-09-17T10:46:34.364Z,100227.56
2022-09-17T10:49:22.082Z,100231.69
2022-09-17T10:51:52.914Z,100231.47
2022-09-17T10:55:10.448Z,100231.16
2022-09-17T10:58:11.477Z,100230.78
2022-09-17T11:01:05.106Z,100224.25
2022-09-17T11:04:17.157Z,100232.50
2022-09-17T11:07:36.621Z,100220.25
2022-09-17T11:10:20.174Z,100221.03
2022-09-17T11:13:16.974Z,100212.56
2022-09-17T11:16:09.889Z,100219.22
2022-09-17T11:18:45.733Z,100213.16
2022-09-17T11:21:52.459Z,100207.03
2022-09-17T11:25:00.466Z,100204.63
2022-09-17T11:27:59.437Z,100201.06
2022-09-17T11:30:43.492Z,100207.25
2022-09-17T11:33:32.668Z,100205.66
2022-09-17T11:36:13.234Z,100214.47
2022-09-17T11:38:49.103Z,100203.56
2022-09-17T11:41:26.697Z,100213.06
2022-09-17T11:44:11.057Z,100205.41
2022-09-17T11:46:47.895Z,100214.44
2022-09-17T11:49:33.300Z,100206.78
2022-09-17T11:52:13.656Z,100210.53
2022-09-17T11:54:53.864Z,100207.78
2022-09-17T11:57:33.823Z,100205.81
2022-09-17T12:00:15.108Z,100209.16
2022-09-17T12:02:56.118Z,100207.97
2022-09-17T12:05:33.499Z,100204.75
2022-09-17T12:08:14.915Z,100209.78
2022-09-17T12:10:55.529Z,100220.84
2022-09-17T12:13:47.194Z,100212.84
2022-09-17T12:16:25.404Z,100202.31
2022-09-17T12:19:04.833Z,100204.69
2022-09-17T12:21:42.833Z,100205.53
2022-09-17T12:24:24.207Z,100205.53
2022-09-17T12:27:18.217Z,100206.88
2022-09-17T12:30:13.204Z,100198.84
2022-09-17T12:33:15.983Z,100202.25
2022-09-17T12:36:14.250Z,100200.31
2022-09-17T12:39:06.898Z,100202.00
2022-09-17T12:41:54.256Z,100196.75
2022-09-17T12:45:02.165Z,100190.31
2022-09-17T12:48:25.909Z,100197.41
2022-09-17T12:51:12.728Z,100201.50
2022-09-17T12:54:09.891Z,100198.66
2022-09-17T12:57:00.235Z,100193.41
2022-09-17T12:59:36.900Z,100200.75
2022-09-17T13:02:20.379Z,100194.00
2022-09-17T13:05:38.877Z,100189.72
2022-09-17T13:09:02.263Z,100186.72
2022-09-17T13:12:00.571Z,100187.25
2022-09-17T13:14:49.730Z,100189.78
2022-09-17T13:17:30.283Z,100188.16
2022-09-17T13:20:14.216Z,100185.31
2022-09-17T13:22:50.340Z,100192.28
2022-09-17T13:25:23.232Z,100202.09
2022-09-17T13:28:08.652Z,100200.13
2022-09-17T13:30:58.838Z,100195.75
2022-09-17T13:33:58.695Z,100194.59
2022-09-17T13:36:51.561Z,100194.25
2022-09-17T13:39:47.143Z,100206.09
2022-09-17T13:42:29.355Z,100199.19
2022-09-17T13:45:13.217Z,100191.56
2022-09-17T13:47:55.504Z,100201.47
2022-09-17T13:50:33.271Z,100195.03
2022-09-17T13:53:21.845Z,100208.16
2022-09-17T13:55:55.440Z,100194.38
2022-09-17T13:58:30.163Z,100205.13
2022-09-17T14:01:02.951Z,100192.19
2022-09-17T14:03:57.520Z,100203.25
2022-09-17T14:06:54.104Z,100200.47
2022-09-17T14:09:54.517Z,100199.75
2022-09-17T14:13:19.942Z,100208.41
2022-09-17T14:16:04.844Z,100202.78
2022-09-17T14:18:47.708Z,100202.00
2022-09-17T14:21:28.968Z,100211.50
2022-09-17T14:24:03.450Z,100216.00
2022-09-17T14:27:17.952Z,100202.66
2022-09-17T14:30:21.394Z,100209.69
2022-09-17T14:33:06.615Z,100221.53
2022-09-17T14:35:44.461Z,100204.84
2022-09-17T14:38:22.991Z,100211.00
2022-09-17T14:41:02.833Z,100208.94
2022-09-17T14:43:47.075Z,100221.59
2022-09-17T14:46:24.153Z,100217.22
2022-09-17T14:48:55.061Z,100222.56
2022-09-17T14:51:33.499Z,100217.69
2022-09-17T14:54:23.149Z,100211.59
2022-09-17T14:57:02.693Z,100219.44
2022-09-17T14:59:53.539Z,100218.72
2022-09-17T15:02:45.279Z,100227.72
2022-09-17T15:05:33.796Z,100225.75
2022-09-17T15:08:17.851Z,100224.94
2022-09-17T15:10:55.501Z,100226.19
2022-09-17T15:13:30.859Z,100224.16
2022-09-17T15:16:13.201Z,100217.28
2022-09-17T15:18:50.719Z,100221.38
2022-09-17T15:21:32.446Z,100221.38
2022-09-17T15:24:13.553Z,100233.19
2022-09-17T15:26:47.792Z,100225.88
2022-09-17T15:29:18.721Z,100229.16
2022-09-17T15:31:51.203Z,100220.59
2022-09-17T15:34:21.884Z,100222.66
2022-09-17T15:37:07.962Z,100223.09
2022-09-17T15:39:46.367Z,100223.53
2022-09-17T15:42:27.483Z,100225.22
2022-09-17T15:45:20.419Z,100226.88
2022-09-17T15:47:57.956Z,100230.56
2022-09-17T15:50:31.030Z,100234.66
2022-09-17T15:53:25.789Z,100232.97
2022-09-17T15:56:10.224Z,100233.88
2022-09-17T15:58:56.091Z,100227.78
2022-09-17T16:01:57.085Z,100220.91
2022-09-17T16:04:33.709Z,100230.72
2022-09-17T16:07:32.624Z,100238.91
2022-09-17T16:10:03.047Z,100241.75
2022-09-17T16:12:34.714Z,100235.69
2022-09-17T16:15:06.195Z,100246.28
2022-09-17T16:17:46.957Z,100244.69
2022-09-17T16:20:24.061Z,100253.66
2022-09-17T16:22:57.790Z,100254.91
2022-09-17T16:25:31.234Z,100262.22
2022-09-17T16:28:05.744Z,100251.63
2022-09-17T16:30:36.373Z,100258.13
2022-09-17T16:33:07.382Z,100256.50
2022-09-17T16:35:40.743Z,100261.41
2022-09-17T16:38:12.379Z,100259.03
2022-09-17T16:40:48.013Z,100264.72
2022-09-17T16:43:18.252Z,100259.44
2022-09-17T16:46:02.155Z,100257.81
2022-09-17T16:48:32.763Z,100269.69
2022-09-17T16:51:10.116Z,100267.63
2022-09-17T16:53:41.003Z,100272.16
2022-09-17T16:56:12.030Z,100273.41
2022-09-17T16:58:42.355Z,100282.41
2022-09-17T17:01:14.600Z,100299.94
2022-09-17T17:03:46.247Z,100295.50
2022-09-17T17:06:23.219Z,100298.34
2022-09-17T17:08:53.916Z,100301.19
2022-09-17T17:11:24.310Z,100295.91
2022-09-17T17:13:56.358Z,100307.75
2022-09-17T17:16:26.505Z,100304.91
2022-09-17T17:18:56.752Z,100309.38
2022-09-17T17:21:29.085Z,100308.53
2022-09-17T17:23:59.610Z,100307.38
2022-09-17T17:26:29.326Z,100309.00
2022-09-17T17:29:00.260Z,100304.53
2022-09-17T17:31:30.232Z,100300.06
2022-09-17T17:34:02.076Z,100304.59
2022-09-17T17:36:34.708Z,100307.91
2022-09-17T17:39:05.314Z,100308.31
2022-09-17T17:41:36.046Z,100306.69
2022-09-17T17:44:06.591Z,100314.00
2022-09-17T17:46:37.056Z,100307.94
2022-09-17T17:49:07.717Z,100313.25
2022-09-17T17:51:40.302Z,100316.53
2022-09-17T17:54:11.092Z,100311.72
2022-09-17T17:56:41.612Z,100308.94
2022-09-17T17:59:12.177Z,100308.56
2022-09-17T18:01:42.968Z,100302.47
2022-09-17T18:04:13.636Z,100310.56
2022-09-17T18:06:45.478Z,100307.31
2022-09-17T18:09:16.180Z,100310.16
2022-09-17T18:11:46.418Z,100318.34
2022-09-17T18:14:17.267Z,100322.88
2022-09-17T18:16:47.884Z,100324.53
2022-09-17T18:19:18.485Z,100318.03
2022-09-17T18:21:50.990Z,100323.72
2022-09-17T18:24:22.229Z,100320.88
2022-09-17T18:26:53.133Z,100316.78
2022-09-17T18:29:24.015Z,100319.63
2022-09-17T18:31:55.144Z,100314.72
2022-09-17T18:34:26.056Z,100319.19
2022-09-17T18:36:58.625Z,100316.34
2022-09-17T18:42:19.913Z,100320.81
2022-09-17T18:44:49.943Z,100321.19
2022-09-17T18:47:24.066Z,100320.75
2022-09-17T18:49:54.402Z,100319.50
2022-09-17T18:52:26.007Z,100328.44
2022-09-17T18:54:56.423Z,100319.88
2022-09-17T18:57:26.200Z,100320.34
2022-09-17T18:59:58.823Z,100320.34
2022-09-17T19:02:29.162Z,100323.19
2022-09-17T19:04:59.241Z,100325.59
2022-09-17T19:07:32.047Z,100321.13
2022-09-17T19:10:03.375Z,100329.28
2022-09-17T19:12:34.415Z,100325.66
2022-09-17T19:15:04.711Z,100328.13
2022-09-17T19:17:35.364Z,100322.88
2022-09-17T19:20:06.807Z,100325.34
2022-09-17T19:22:38.909Z,100322.91
2022-09-17T19:25:10.840Z,100333.50
2022-09-17T19:27:41.489Z,100339.22
2022-09-17T19:30:14.494Z,100334.31
2022-09-17T19:32:50.038Z,100326.56
2022-09-17T19:35:21.306Z,100327.38
2022-09-17T19:37:54.553Z,100332.66
2022-09-17T19:40:25.703Z,100326.94
2022-09-17T19:42:56.854Z,100330.59
2022-09-17T19:45:27.492Z,100328.13
2022-09-17T19:48:02.194Z,100326.50
2022-09-17T19:50:36.004Z,100337.91
2022-09-17T19:53:07.927Z,100330.59
2022-09-17T19:55:41.418Z,100326.94
2022-09-17T19:58:11.799Z,100328.19
2022-09-17T20:00:42.313Z,100328.19
2022-09-17T20:03:12.802Z,100332.72
2022-09-17T20:05:43.438Z,100331.09
2022-09-17T20:08:15.925Z,100338.84
2022-09-17T20:10:46.888Z,100334.38
2022-09-17T20:13:20.041Z,100338.44
2022-09-17T20:15:50.439Z,100338.91
2022-09-17T20:18:23.528Z,100339.34
2022-09-17T20:20:54.747Z,100340.97
2022-09-17T20:23:31.792Z,100337.34
2022-09-17T20:26:11.795Z,100339.81
2022-09-17T20:28:42.727Z,100334.56
2022-09-17T20:31:17.191Z,100344.72
2022-09-17T20:33:49.247Z,100339.03
2022-09-17T20:36:22.284Z,100342.66
2022-09-17T20:39:15.437Z,100346.34
2022-09-17T20:41:46.825Z,100339.03
2022-09-17T20:44:18.303Z,100341.88
2022-09-17T20:46:49.066Z,100334.13
2022-09-17T20:49:19.689Z,100334.13
2022-09-17T20:51:50.202Z,100335.72
2022-09-17T20:54:22.069Z,100339.44
2022-09-17T20:56:52.720Z,100337.84
2022-09-17T20:59:25.553Z,100329.72
2022-09-17T21:01:56.560Z,100333.78
2022-09-17T21:04:27.667Z,100330.94
2022-09-17T21:06:57.668Z,100329.34
2022-09-17T21:09:29.833Z,100337.09
2022-09-17T21:12:00.471Z,100331.00
2022-09-17T21:14:30.975Z,100328.97
2022-09-17T21:17:01.362Z,100336.72
2022-09-17T21:19:31.440Z,100333.47
2022-09-17T21:22:01.967Z,100330.63
2022-09-17T21:24:33.744Z,100333.47
2022-09-17T21:27:03.493Z,100341.69
2022-09-17T21:29:34.417Z,100338.38
2022-09-17T21:32:05.070Z,100337.56
2022-09-17T21:34:35.436Z,100332.25
2022-09-17T21:37:06.038Z,100327.38
2022-09-17T21:39:38.102Z,100323.69
2022-09-17T21:42:08.320Z,100323.28
2022-09-17T21:44:39.275Z,100310.28
2022-09-17T21:47:12.440Z,100313.91
2022-09-17T21:49:44.425Z,100305.38
2022-09-17T21:52:14.628Z,100316.75
2022-09-17T21:54:47.089Z,100316.31
2022-09-17T21:57:17.650Z,100318.38
2022-09-17T21:59:48.078Z,100325.69
2022-09-17T22:02:18.532Z,100323.63
2022-09-17T22:04:48.517Z,100335.84
2022-09-17T22:07:18.574Z,100325.25
2022-09-17T22:09:51.028Z,100330.16
2022-09-17T22:12:21.592Z,100329.34
2022-09-17T22:14:52.022Z,100330.16
2022-09-17T22:17:23.572Z,100337.88
2022-09-17T22:19:53.974Z,100335.03
2022-09-17T22:22:24.520Z,100333.00
2022-09-17T22:24:56.686Z,100322.41
2022-09-17T22:27:27.162Z,100321.59
2022-09-17T22:29:57.634Z,100312.25
2022-09-17T22:32:29.065Z,100314.28
2022-09-17T22:34:59.543Z,100315.97
2022-09-17T22:37:38.373Z,100313.91
2022-09-17T22:40:13.045Z,100315.16
2022-09-17T22:42:43.119Z,100314.34
2022-09-17T22:45:13.678Z,100316.38
2022-09-17T22:47:44.400Z,100327.00
2022-09-17T22:50:14.787Z,100318.06
2022-09-17T22:52:45.678Z,100325.81
2022-09-17T22:55:17.687Z,100323.38
2022-09-17T22:57:48.061Z,100323.81
2022-09-17T23:00:19.622Z,100318.13
2022-09-17T23:02:49.566Z,100318.53
2022-09-17T23:05:19.792Z,100330.72
2022-09-17T23:07:50.418Z,100335.63
2022-09-17T23:10:22.568Z,100331.16
2022-09-17T23:12:52.180Z,100325.09
2022-09-17T23:15:26.694Z,100329.59
2022-09-17T23:17:57.305Z,100335.72
2022-09-17T23:20:27.869Z,100325.19
2022-09-17T23:22:58.490Z,100329.69
2022-09-17T23:25:30.843Z,100331.38
2022-09-17T23:28:01.477Z,100329.75
2022-09-17T23:30:32.160Z,100335.88
2022-09-17T23:33:01.947Z,100324.94
2022-09-17T23:35:32.082Z,100327.41
2022-09-17T23:38:02.639Z,100324.97
2022-09-17T23:40:35.266Z,100331.47
2022-09-17T23:43:05.672Z,100323.78
2022-09-17T23:45:35.943Z,100328.69
2022-09-17T23:48:06.465Z,100332.78
2022-09-17T23:50:36.899Z,100321.00
2022-09-17T23:53:07.138Z,100329.16
2022-09-17T23:55:39.874Z,100328.78
2022-09-17T23:58:10.187Z,100320.28
